createdAt,value
2023-05-17T00:00:36.298Z,10.00
2023-05-17T00:03:03.419Z,9.40
2023-05-17T00:05:30.881Z,9.50
2023-05-17T00:07:57.950Z,10.50
2023-05-17T00:10:24.995Z,10.30
2023-05-17T00:12:52.045Z,8.50
2023-05-17T00:15:19.193Z,8.80
2023-05-17T00:17:46.335Z,7.10
2023-05-17T00:20:13.598Z,8.00
2023-05-17T00:22:41.356Z,7.20
2023-05-17T00:25:08.507Z,7.00
2023-05-17T00:27:36.374Z,7.10
2023-05-17T00:30:03.832Z,7.50
2023-05-17T00:32:30.854Z,7.30
2023-05-17T00:34:58.088Z,8.40
2023-05-17T00:37:25.273Z,8.50
2023-05-17T00:39:53.344Z,6.60
2023-05-17T00:42:20.698Z,7.20
2023-05-17T00:44:47.881Z,7.10
2023-05-17T00:47:15.162Z,7.60
2023-05-17T00:49:42.350Z,7.20
2023-05-17T00:52:09.319Z,6.40
2023-05-17T00:54:36.562Z,6.40
2023-05-17T00:57:04.205Z,6.40
2023-05-17T00:59:33.541Z,5.50
2023-05-17T01:02:02.120Z,6.50
2023-05-17T01:04:29.261Z,6.80
2023-05-17T01:06:56.587Z,6.80
2023-05-17T01:09:23.743Z,6.90
2023-05-17T01:12:33.289Z,5.40
2023-05-17T01:15:17.335Z,5.90
2023-05-17T01:17:56.951Z,5.80
2023-05-17T01:20:29.064Z,5.70
2023-05-17T01:23:31.816Z,5.40
2023-05-17T01:26:07.158Z,4.40
2023-05-17T01:28:34.617Z,5.00
2023-05-17T01:31:02.860Z,5.30
2023-05-17T01:33:31.210Z,4.20
2023-05-17T01:35:58.307Z,3.80
2023-05-17T01:38:25.360Z,4.00
2023-05-17T01:40:59.060Z,4.30
2023-05-17T01:43:52.220Z,3.10
2023-05-17T01:46:40.157Z,3.20
2023-05-17T01:49:16.722Z,3.50
2023-05-17T01:51:59.139Z,3.40
2023-05-17T01:54:31.886Z,3.30
2023-05-17T01:56:59.467Z,3.60
2023-05-17T01:59:29.290Z,3.60
2023-05-17T02:02:04.168Z,3.30
2023-05-17T02:04:31.387Z,3.90
2023-05-17T02:07:00.922Z,3.70
2023-05-17T02:09:28.016Z,3.00
2023-05-17T02:11:55.065Z,3.40
2023-05-17T02:14:22.112Z,3.10
2023-05-17T02:16:49.161Z,3.00
2023-05-17T02:19:16.101Z,3.20
2023-05-17T02:21:43.158Z,3.20
2023-05-17T02:24:10.199Z,3.40
2023-05-17T02:26:37.349Z,3.00
2023-05-17T02:29:04.504Z,3.10
2023-05-17T02:31:31.850Z,3.30
2023-05-17T02:33:58.902Z,3.20
2023-05-17T02:36:25.849Z,3.20
2023-05-17T02:38:52.825Z,2.80
2023-05-17T02:41:20.040Z,3.40
2023-05-17T02:43:46.982Z,3.90
2023-05-17T02:46:14.031Z,3.70
2023-05-17T02:48:41.183Z,3.60
2023-05-17T02:51:08.326Z,3.60
2023-05-17T02:53:35.683Z,3.60
2023-05-17T02:56:03.789Z,3.20
2023-05-17T02:58:30.897Z,3.50
2023-05-17T03:00:58.149Z,3.40
2023-05-17T03:03:25.702Z,3.30
2023-05-17T03:05:52.783Z,3.50
2023-05-17T03:08:19.912Z,4.10
2023-05-17T03:10:47.796Z,3.80
2023-05-17T03:13:15.155Z,3.60
2023-05-17T03:15:42.376Z,3.60
2023-05-17T03:18:09.815Z,3.70
2023-05-17T03:20:38.722Z,3.90
2023-05-17T03:23:06.337Z,3.80
2023-05-17T03:25:36.905Z,4.00
2023-05-17T03:28:04.989Z,4.10
2023-05-17T03:30:32.187Z,3.70
2023-05-17T03:32:59.489Z,3.90
2023-05-17T03:35:26.942Z,4.00
2023-05-17T03:37:55.833Z,4.30
2023-05-17T03:40:23.385Z,3.90
2023-05-17T03:42:51.689Z,4.60
2023-05-17T03:45:19.328Z,4.60
2023-05-17T03:47:46.648Z,4.70
2023-05-17T03:50:13.827Z,5.00
2023-05-17T03:52:42.260Z,4.00
2023-05-17T03:55:09.881Z,4.60
2023-05-17T03:57:37.112Z,4.80
2023-05-17T04:00:11.992Z,5.20
2023-05-17T04:02:42.295Z,4.20
2023-05-17T04:05:10.056Z,4.70
2023-05-17T04:07:37.164Z,4.20
2023-05-17T04:10:04.644Z,4.90
2023-05-17T04:12:31.718Z,4.60
2023-05-17T04:14:59.249Z,5.30
2023-05-17T04:17:26.322Z,5.00
2023-05-17T04:19:53.424Z,4.80
2023-05-17T04:22:21.640Z,5.20
2023-05-17T04:24:49.784Z,4.80
2023-05-17T04:27:17.401Z,5.50
2023-05-17T04:29:44.710Z,5.00
2023-05-17T04:32:11.673Z,5.30
2023-05-17T04:34:38.999Z,5.20
2023-05-17T04:37:06.196Z,5.30
2023-05-17T04:39:34.435Z,5.70
2023-05-17T04:42:01.571Z,5.80
2023-05-17T04:44:28.780Z,5.80
2023-05-17T04:46:56.175Z,5.70
2023-05-17T04:49:25.498Z,5.70
2023-05-17T04:51:52.928Z,5.50
2023-05-17T04:54:20.394Z,5.00
2023-05-17T04:56:47.648Z,5.70
2023-05-17T04:59:20.729Z,5.00
2023-05-17T05:01:48.386Z,4.90
2023-05-17T05:04:15.821Z,5.10
2023-05-17T05:06:43.534Z,5.00
2023-05-17T05:09:10.969Z,5.30
2023-05-17T05:11:38.414Z,4.60
2023-05-17T05:14:05.878Z,4.90
2023-05-17T05:16:32.819Z,5.20
2023-05-17T05:19:00.184Z,5.20
2023-05-17T05:21:27.545Z,5.20
2023-05-17T05:23:55.186Z,5.40
2023-05-17T05:26:22.331Z,5.00
2023-05-17T05:28:49.790Z,6.20
2023-05-17T05:31:17.069Z,5.50
2023-05-17T05:33:48.581Z,5.40
2023-05-17T05:36:16.054Z,7.10
2023-05-17T05:38:43.096Z,6.10
2023-05-17T05:41:10.248Z,6.40
2023-05-17T05:43:38.122Z,5.50
2023-05-17T05:46:05.775Z,5.60
2023-05-17T05:48:32.916Z,5.90
2023-05-17T05:51:00.685Z,5.60
2023-05-17T05:53:27.841Z,4.90
2023-05-17T05:55:56.136Z,6.10
2023-05-17T05:58:23.158Z,5.70
2023-05-17T06:00:50.521Z,5.30
2023-05-17T06:03:17.673Z,5.60
2023-05-17T06:05:44.871Z,4.50
2023-05-17T06:08:12.265Z,5.50
2023-05-17T06:10:39.313Z,9.20
2023-05-17T06:13:06.366Z,5.80
2023-05-17T06:15:33.438Z,4.80
2023-05-17T06:18:00.719Z,4.80
2023-05-17T06:20:28.111Z,4.40
2023-05-17T06:22:55.364Z,4.70
2023-05-17T06:25:22.445Z,4.60
2023-05-17T06:27:49.465Z,4.80
2023-05-17T06:30:16.511Z,4.30
2023-05-17T06:32:44.040Z,4.10
2023-05-17T06:35:11.437Z,4.80
2023-05-17T06:37:39.077Z,4.30
2023-05-17T06:40:16.020Z,4.10
2023-05-17T06:42:44.136Z,4.10
2023-05-17T06:45:12.492Z,4.30
2023-05-17T06:47:39.830Z,4.20
2023-05-17T06:50:08.859Z,4.50
2023-05-17T06:52:36.916Z,4.50
2023-05-17T06:55:04.277Z,4.70
2023-05-17T06:57:33.940Z,5.10
2023-05-17T07:00:00.901Z,4.80
2023-05-17T07:02:33.716Z,4.40
2023-05-17T07:05:02.378Z,4.20
2023-05-17T07:07:29.639Z,4.60
2023-05-17T07:09:56.635Z,4.40
2023-05-17T07:12:23.946Z,4.60
2023-05-17T07:14:51.029Z,5.10
2023-05-17T07:17:17.958Z,4.60
2023-05-17T07:19:45.331Z,5.30
2023-05-17T07:22:12.848Z,5.50
2023-05-17T07:24:40.003Z,4.90
2023-05-17T07:27:07.147Z,4.50
2023-05-17T07:29:34.194Z,4.80
2023-05-17T07:32:01.245Z,4.70
2023-05-17T07:34:28.404Z,4.30
2023-05-17T07:36:55.552Z,4.10
2023-05-17T07:40:39.699Z,4.00
2023-05-17T07:43:07.045Z,3.80
2023-05-17T07:45:34.012Z,4.80
2023-05-17T07:48:01.664Z,4.00
2023-05-17T07:50:29.374Z,4.00
2023-05-17T07:52:56.641Z,4.10
2023-05-17T07:55:23.612Z,3.80
2023-05-17T07:57:50.866Z,3.00
2023-05-17T08:00:19.443Z,3.60
2023-05-17T08:02:46.922Z,3.10
2023-05-17T08:05:14.069Z,3.80
2023-05-17T08:07:41.308Z,3.60
2023-05-17T08:10:08.862Z,3.50
2023-05-17T08:12:36.012Z,3.30
2023-05-17T08:15:03.362Z,2.40
2023-05-17T08:17:30.766Z,2.80
2023-05-17T08:19:57.976Z,2.40
2023-05-17T08:22:25.423Z,2.20
2023-05-17T08:24:52.353Z,1.90
2023-05-17T08:27:19.433Z,1.70
2023-05-17T08:29:46.773Z,1.80
2023-05-17T08:32:13.953Z,1.50
2023-05-17T08:34:41.062Z,1.70
2023-05-17T08:37:08.461Z,2.10
2023-05-17T08:39:35.693Z,1.80
2023-05-17T08:42:02.921Z,1.70
2023-05-17T08:44:30.077Z,2.10
2023-05-17T08:46:57.230Z,2.40
2023-05-17T08:49:26.142Z,2.70
2023-05-17T08:51:57.153Z,2.20
2023-05-17T08:54:24.318Z,2.30
2023-05-17T08:56:52.528Z,2.50
2023-05-17T08:59:20.158Z,4.30
2023-05-17T09:01:50.250Z,2.20
2023-05-17T09:04:17.751Z,2.30
2023-05-17T09:06:45.069Z,2.30
2023-05-17T09:09:12.110Z,2.50
2023-05-17T09:11:39.272Z,2.20
2023-05-17T09:14:07.152Z,4.20
2023-05-17T09:16:35.640Z,2.30
2023-05-17T09:19:03.974Z,2.00
2023-05-17T09:21:31.966Z,2.20
2023-05-17T09:24:07.166Z,2.30
2023-05-17T09:26:39.398Z,2.10
2023-05-17T09:29:19.027Z,2.10
2023-05-17T09:31:46.551Z,1.90
2023-05-17T09:34:13.597Z,1.80
2023-05-17T09:36:43.673Z,1.60
2023-05-17T09:39:13.437Z,1.40
2023-05-17T09:41:42.435Z,1.30
2023-05-17T09:44:10.085Z,1.70
2023-05-17T09:46:47.833Z,1.30
2023-05-17T09:49:16.494Z,1.40
2023-05-17T09:51:45.259Z,2.10
2023-05-17T09:54:12.445Z,1.50
2023-05-17T09:56:39.595Z,1.90
2023-05-17T09:59:14.214Z,1.80
2023-05-17T10:01:42.255Z,1.70
2023-05-17T10:04:10.703Z,1.40
2023-05-17T10:06:47.542Z,1.50
2023-05-17T10:09:17.412Z,1.50
2023-05-17T10:11:46.827Z,1.70
2023-05-17T10:14:33.969Z,1.80
2023-05-17T10:17:02.725Z,1.40
2023-05-17T10:19:29.936Z,1.50
2023-05-17T10:22:08.360Z,1.50
2023-05-17T10:24:46.693Z,1.60
2023-05-17T10:27:13.881Z,1.50
2023-05-17T10:29:41.819Z,2.30
2023-05-17T10:32:09.507Z,1.40
2023-05-17T10:34:38.265Z,1.60
2023-05-17T10:37:05.532Z,1.50
2023-05-17T10:39:34.921Z,2.30
2023-05-17T10:42:13.672Z,1.90
2023-05-17T10:44:42.251Z,1.30
2023-05-17T10:47:10.249Z,1.70
2023-05-17T10:49:38.260Z,2.20
2023-05-17T10:52:17.774Z,3.10
2023-05-17T10:54:45.863Z,2.20
2023-05-17T10:57:50.593Z,2.00
2023-05-17T11:00:22.017Z,1.60
2023-05-17T11:02:50.875Z,4.20
2023-05-17T11:05:27.462Z,2.40
2023-05-17T11:08:16.165Z,1.90
2023-05-17T11:11:12.707Z,1.60
2023-05-17T11:13:55.481Z,2.60
2023-05-17T11:16:27.775Z,1.90
2023-05-17T11:19:05.610Z,1.60
2023-05-17T11:21:33.546Z,1.20
2023-05-17T11:24:02.270Z,2.20
2023-05-17T11:26:38.906Z,2.80
2023-05-17T11:29:12.617Z,5.50
2023-05-17T11:31:44.152Z,4.20
2023-05-17T11:34:11.530Z,2.70
2023-05-17T11:36:58.834Z,4.90
2023-05-17T11:39:27.212Z,2.60
2023-05-17T11:41:56.594Z,1.40
2023-05-17T11:44:31.648Z,1.30
2023-05-17T11:47:03.606Z,2.60
2023-05-17T11:49:35.581Z,1.80
2023-05-17T11:52:05.180Z,1.80
2023-05-17T11:54:32.546Z,1.60
2023-05-17T11:57:00.187Z,1.90
2023-05-17T11:59:27.572Z,2.20
2023-05-17T12:01:55.205Z,2.40
2023-05-17T12:04:26.490Z,1.50
2023-05-17T12:06:54.552Z,3.80
2023-05-17T12:09:22.899Z,2.50
2023-05-17T12:11:50.085Z,2.70
2023-05-17T12:14:22.006Z,1.60
2023-05-17T12:16:52.507Z,2.70
2023-05-17T12:19:21.011Z,2.60
2023-05-17T12:21:48.676Z,1.80
2023-05-17T12:24:16.307Z,1.40
2023-05-17T12:26:45.196Z,1.50
2023-05-17T12:29:13.811Z,1.50
2023-05-17T12:31:43.520Z,1.60
2023-05-17T12:34:12.554Z,1.30
2023-05-17T12:36:39.764Z,1.20
2023-05-17T12:39:10.012Z,1.10
2023-05-17T12:41:38.653Z,1.30
2023-05-17T12:46:39.415Z,1.90
2023-05-17T12:49:08.533Z,1.80
2023-05-17T12:51:43.636Z,1.70
2023-05-17T12:54:29.479Z,1.90
2023-05-17T12:59:29.185Z,1.70
2023-05-17T13:01:57.428Z,1.60
2023-05-17T13:04:34.692Z,1.70
2023-05-17T13:07:03.614Z,1.60
2023-05-17T13:09:32.224Z,1.90
2023-05-17T13:12:07.398Z,1.70
2023-05-17T13:14:48.492Z,2.00
2023-05-17T13:17:15.591Z,1.50
2023-05-17T13:19:42.867Z,1.50
2023-05-17T13:22:10.323Z,1.50
2023-05-17T13:24:38.264Z,1.40
2023-05-17T13:27:05.998Z,1.70
2023-05-17T13:29:39.531Z,1.60
2023-05-17T13:32:08.301Z,2.30
2023-05-17T13:34:35.877Z,1.10
2023-05-17T13:37:03.133Z,1.50
2023-05-17T13:39:30.238Z,1.50
2023-05-17T13:41:57.388Z,1.40
2023-05-17T13:44:24.572Z,1.40
2023-05-17T13:46:51.686Z,1.40
2023-05-17T13:49:19.192Z,1.00
2023-05-17T13:51:46.394Z,1.00
2023-05-17T13:54:13.390Z,1.40
2023-05-17T13:56:40.648Z,1.70
2023-05-17T13:59:07.660Z,1.10
2023-05-17T14:01:34.681Z,1.10
2023-05-17T14:04:01.986Z,1.20
2023-05-17T14:06:29.458Z,1.20
2023-05-17T14:08:57.971Z,1.20
2023-05-17T14:11:25.125Z,1.20
2023-05-17T14:13:52.170Z,1.40
2023-05-17T14:16:19.225Z,0.90
2023-05-17T14:18:46.711Z,1.10
2023-05-17T14:21:14.024Z,1.20
2023-05-17T14:23:41.179Z,5.10
2023-05-17T14:26:09.404Z,2.90
2023-05-17T14:28:38.420Z,1.40
2023-05-17T14:31:06.919Z,1.20
2023-05-17T14:33:34.344Z,1.00
2023-05-17T14:36:01.619Z,1.30
2023-05-17T14:38:28.519Z,1.50
2023-05-17T14:40:56.128Z,1.00
2023-05-17T14:43:23.889Z,1.00
2023-05-17T14:45:51.141Z,2.50
2023-05-17T14:48:18.225Z,1.00
2023-05-17T14:50:45.437Z,1.10
2023-05-17T14:53:13.234Z,1.10
2023-05-17T14:55:40.658Z,0.90
2023-05-17T14:58:07.912Z,1.10
2023-05-17T15:00:35.152Z,1.20
2023-05-17T15:03:02.294Z,0.90
2023-05-17T15:05:29.889Z,1.20
2023-05-17T15:07:57.934Z,1.10
2023-05-17T15:10:24.981Z,1.40
2023-05-17T15:12:52.649Z,0.90
2023-05-17T15:15:22.247Z,1.10
2023-05-17T15:17:49.848Z,1.30
2023-05-17T15:20:18.975Z,1.20
2023-05-17T15:22:46.563Z,1.00
2023-05-17T15:25:13.532Z,1.10
2023-05-17T15:27:41.012Z,0.70
2023-05-17T15:30:10.351Z,1.20
2023-05-17T15:32:39.606Z,1.00
2023-05-17T15:35:07.821Z,1.10
2023-05-17T15:37:35.927Z,1.30
2023-05-17T15:40:10.003Z,1.30
2023-05-17T15:42:37.716Z,1.10
2023-05-17T15:45:05.827Z,1.20
2023-05-17T15:50:04.362Z,1.40
2023-05-17T15:52:31.503Z,1.00
2023-05-17T15:54:58.656Z,1.20
2023-05-17T15:57:25.746Z,1.30
2023-05-17T15:59:53.049Z,1.40
2023-05-17T16:02:20.028Z,2.30
2023-05-17T16:04:47.141Z,1.30
2023-05-17T16:07:14.190Z,1.00
2023-05-17T16:09:41.337Z,1.20
2023-05-17T16:12:08.517Z,1.20
2023-05-17T16:14:36.249Z,1.50
2023-05-17T16:17:06.167Z,1.10
2023-05-17T16:19:34.545Z,2.00
2023-05-17T16:22:02.035Z,1.50
2023-05-17T16:24:29.146Z,1.00
2023-05-17T16:26:56.194Z,1.30
2023-05-17T16:29:23.239Z,1.60
2023-05-17T16:31:51.616Z,1.80
2023-05-17T16:34:18.734Z,3.00
2023-05-17T16:36:47.941Z,1.80
2023-05-17T16:39:14.934Z,1.70
2023-05-17T16:41:42.054Z,1.80
2023-05-17T16:44:09.225Z,1.50
2023-05-17T16:46:37.990Z,1.10
2023-05-17T16:49:05.247Z,1.30
2023-05-17T16:51:32.161Z,1.30
2023-05-17T16:53:59.234Z,1.30
2023-05-17T16:56:26.906Z,0.90
2023-05-17T16:58:53.941Z,1.60
2023-05-17T17:01:21.457Z,1.20
2023-05-17T17:03:48.790Z,1.50
2023-05-17T17:06:16.042Z,1.20
2023-05-17T17:08:43.153Z,1.70
2023-05-17T17:11:10.295Z,1.50
2023-05-17T17:13:37.345Z,1.80
2023-05-17T17:16:06.140Z,1.80
2023-05-17T17:18:33.208Z,1.50
2023-05-17T17:21:00.254Z,1.40
2023-05-17T17:23:27.683Z,1.50
2023-05-17T17:25:54.826Z,1.20
2023-05-17T17:28:22.287Z,1.50
2023-05-17T17:30:49.441Z,1.30
2023-05-17T17:33:16.510Z,2.00
2023-05-17T17:35:43.805Z,1.50
2023-05-17T17:38:11.291Z,1.50
2023-05-17T17:40:38.339Z,1.70
2023-05-17T17:43:05.405Z,1.50
2023-05-17T17:45:32.441Z,1.30
2023-05-17T17:47:59.934Z,1.50
2023-05-17T17:50:27.188Z,2.00
2023-05-17T17:52:54.553Z,1.90
2023-05-17T17:55:21.845Z,1.90
2023-05-17T17:57:48.891Z,1.60
2023-05-17T18:00:16.673Z,1.70
2023-05-17T18:02:44.150Z,1.90
2023-05-17T18:05:11.671Z,2.70
2023-05-17T18:07:39.606Z,2.10
2023-05-17T18:10:07.232Z,2.10
2023-05-17T18:12:34.757Z,2.10
2023-05-17T18:15:01.903Z,2.30
2023-05-17T18:17:28.941Z,2.20
2023-05-17T18:19:56.203Z,2.20
2023-05-17T18:22:23.249Z,2.30
2023-05-17T18:24:52.789Z,2.80
2023-05-17T18:27:20.312Z,3.40
2023-05-17T18:29:47.269Z,3.20
2023-05-17T18:32:14.309Z,3.90
2023-05-17T18:34:41.450Z,4.00
2023-05-17T18:37:08.626Z,3.90
2023-05-17T18:39:35.761Z,4.80
2023-05-17T18:42:02.832Z,5.10
2023-05-17T18:44:29.945Z,4.90
2023-05-17T18:46:57.279Z,3.80
2023-05-17T18:49:26.696Z,3.60
2023-05-17T18:51:53.757Z,3.40
2023-05-17T18:54:21.095Z,2.30
2023-05-17T18:56:48.143Z,2.30
2023-05-17T18:59:15.496Z,2.00
2023-05-17T19:01:44.018Z,3.50
2023-05-17T19:04:11.163Z,2.40
2023-05-17T19:06:41.493Z,2.10
2023-05-17T19:09:08.916Z,2.00
2023-05-17T19:11:36.261Z,2.20
2023-05-17T19:14:03.616Z,2.10
2023-05-17T19:16:31.069Z,1.90
2023-05-17T19:18:58.043Z,2.30
2023-05-17T19:21:25.061Z,2.50
2023-05-17T19:23:52.222Z,2.20
2023-05-17T19:26:19.148Z,2.40
2023-05-17T19:28:46.246Z,2.90
2023-05-17T19:31:13.480Z,2.20
2023-05-17T19:33:40.840Z,2.30
2023-05-17T19:36:07.956Z,2.40
2023-05-17T19:38:35.114Z,3.00
2023-05-17T19:41:02.776Z,3.20
2023-05-17T19:43:29.921Z,3.80
2023-05-17T19:45:56.999Z,4.50
2023-05-17T19:48:24.470Z,4.90
2023-05-17T19:50:51.771Z,4.90
2023-05-17T19:53:18.673Z,4.50
2023-05-17T19:58:46.458Z,4.20
2023-05-17T20:01:13.423Z,4.20
2023-05-17T20:03:41.145Z,4.30
2023-05-17T20:06:11.435Z,4.30
2023-05-17T20:08:38.402Z,4.70
2023-05-17T20:11:06.349Z,4.00
2023-05-17T20:13:34.516Z,4.50
2023-05-17T20:16:01.575Z,4.20
2023-05-17T20:18:30.270Z,4.70
2023-05-17T20:20:57.592Z,4.70
2023-05-17T20:23:24.578Z,6.20
2023-05-17T20:25:51.688Z,5.80
2023-05-17T20:28:19.145Z,5.30
2023-05-17T20:30:46.601Z,4.60
2023-05-17T20:33:13.899Z,5.20
2023-05-17T20:35:41.068Z,5.50
2023-05-17T20:38:08.151Z,4.90
2023-05-17T20:40:35.843Z,5.50
2023-05-17T20:43:04.501Z,5.30
2023-05-17T20:45:32.368Z,5.90
2023-05-17T20:47:59.625Z,6.00
2023-05-17T20:50:26.965Z,5.40
2023-05-17T20:52:54.427Z,5.60
2023-05-17T20:55:21.594Z,6.10
2023-05-17T20:57:48.926Z,6.40
2023-05-17T21:00:18.334Z,6.20
2023-05-17T21:02:45.959Z,6.50
2023-05-17T21:05:14.080Z,6.60
2023-05-17T21:07:41.367Z,6.40
2023-05-17T21:10:09.280Z,6.30
2023-05-17T21:12:36.534Z,7.00
2023-05-17T21:15:16.423Z,8.50
2023-05-17T21:17:45.809Z,7.90
2023-05-17T21:20:13.692Z,7.30
2023-05-17T21:22:41.310Z,8.10
2023-05-17T21:25:08.971Z,7.80
2023-05-17T21:27:36.163Z,7.60
2023-05-17T21:30:03.466Z,7.00
2023-05-17T21:32:30.550Z,6.70
2023-05-17T21:34:59.728Z,7.10
2023-05-17T21:37:26.810Z,6.30
2023-05-17T21:39:53.919Z,6.50
2023-05-17T21:42:21.592Z,6.50
2023-05-17T21:44:48.613Z,6.50
2023-05-17T21:47:15.663Z,6.20
2023-05-17T21:49:42.825Z,5.30
2023-05-17T21:52:09.869Z,6.60
2023-05-17T21:54:37.008Z,7.10
2023-05-17T21:57:04.179Z,7.00
2023-05-17T21:59:31.205Z,6.90
2023-05-17T22:01:58.244Z,7.30
2023-05-17T22:04:25.294Z,6.20
2023-05-17T22:06:52.443Z,6.20
2023-05-17T22:09:19.823Z,6.80
2023-05-17T22:11:47.004Z,7.40
2023-05-17T22:14:14.196Z,6.50
2023-05-17T22:16:41.246Z,6.90
2023-05-17T22:19:08.328Z,6.20
2023-05-17T22:21:35.435Z,6.80
2023-05-17T22:24:02.484Z,5.70
2023-05-17T22:26:29.534Z,6.70
2023-05-17T22:28:56.886Z,6.40
2023-05-17T22:31:23.978Z,6.80
2023-05-17T22:33:54.021Z,7.00
2023-05-17T22:36:22.327Z,6.10
2023-05-17T22:38:49.301Z,6.70
2023-05-17T22:41:16.622Z,7.00
2023-05-17T22:43:43.672Z,6.70
2023-05-17T22:46:10.718Z,7.20
2023-05-17T22:48:37.696Z,6.90
2023-05-17T22:51:05.321Z,7.10
2023-05-17T22:53:32.388Z,7.20
2023-05-17T22:55:59.519Z,6.40
2023-05-17T22:58:26.667Z,6.50
2023-05-17T23:00:53.748Z,6.70
2023-05-17T23:03:21.187Z,6.60
2023-05-17T23:05:48.623Z,5.90
2023-05-17T23:08:15.982Z,6.30
2023-05-17T23:10:46.165Z,4.90
2023-05-17T23:13:14.073Z,5.20
2023-05-17T23:15:46.922Z,5.50
2023-05-17T23:18:14.306Z,5.10
2023-05-17T23:20:42.376Z,4.60
2023-05-17T23:23:09.420Z,4.90
2023-05-17T23:25:37.592Z,4.20
2023-05-17T23:28:04.952Z,4.50
2023-05-17T23:30:32.634Z,4.40
2023-05-17T23:33:00.328Z,4.80
2023-05-17T23:35:27.751Z,4.30
2023-05-17T23:37:55.085Z,5.00
2023-05-17T23:40:22.229Z,4.40
2023-05-17T23:42:49.377Z,4.20
2023-05-17T23:45:16.354Z,4.00
2023-05-17T23:47:44.721Z,3.80
2023-05-17T23:50:12.322Z,4.10
2023-05-17T23:52:41.210Z,4.50
2023-05-17T23:55:09.244Z,4.80
2023-05-17T23:57:36.262Z,4.20
